ASA383 KSFO-KSAN
Flight info
| Callsign | ASA383 |
|---|---|
| Flight time | 1h 9m |
| Altitude | 37000 |
| Route | WESLA5 YYUNG LAX COMIX2 |
| Aircraft | B738/M-SDE2E3FGHIRWXY/LB1 |
Departure
| Time | 2026-04-26 01:50 |
|---|---|
| Airport | San Francisco International Airport (KSFO) |
Arrival
| Time | 2026-04-26 02:59 |
|---|---|
| Airport | San Diego International Airport (KSAN) |
| Time | Latitude | Longitude | Altitude | Speed | Heading |
|---|---|---|---|---|---|
| 2026-04-26 01:02 | 37.61244 | -122.38582 | 22 ft | 0 kts | 118° |
| 2026-04-26 01:36 | 37.61245 | -122.38583 | 21 ft | 1 kts | 118° |
| 2026-04-26 01:36 | 37.61256 | -122.38611 | 21 ft | 4 kts | 118° |
| 2026-04-26 01:37 | 37.61282 | -122.38671 | 23 ft | 4 kts | 118° |
| 2026-04-26 01:37 | 37.61289 | -122.38688 | 22 ft | 4 kts | 119° |
| 2026-04-26 01:37 | 37.61269 | -122.38675 | 21 ft | 4 kts | 173° |
| 2026-04-26 01:37 | 37.61249 | -122.38685 | 22 ft | 2 kts | 208° |
| 2026-04-26 01:38 | 37.61252 | -122.38683 | 22 ft | 0 kts | 208° |
| 2026-04-26 01:41 | 37.61249 | -122.38685 | 21 ft | 2 kts | 208° |
| 2026-04-26 01:41 | 37.61217 | -122.38706 | 21 ft | 7 kts | 208° |
| 2026-04-26 01:41 | 37.61169 | -122.38738 | 21 ft | 8 kts | 208° |
| 2026-04-26 01:41 | 37.61123 | -122.38768 | 22 ft | 7 kts | 207° |
| 2026-04-26 01:42 | 37.61078 | -122.38798 | 21 ft | 7 kts | 208° |
| 2026-04-26 01:42 | 37.61034 | -122.38826 | 22 ft | 7 kts | 201° |
| 2026-04-26 01:42 | 37.60977 | -122.38787 | 21 ft | 14 kts | 120° |
| 2026-04-26 01:42 | 37.60928 | -122.38667 | 21 ft | 14 kts | 118° |
| 2026-04-26 01:43 | 37.60928 | -122.38565 | 22 ft | 13 kts | 41° |
| 2026-04-26 01:43 | 37.60994 | -122.38510 | 22 ft | 7 kts | 57° |
| 2026-04-26 01:43 | 37.60972 | -122.38456 | 21 ft | 8 kts | 127° |
| 2026-04-26 01:43 | 37.60933 | -122.38390 | 21 ft | 12 kts | 126° |
| 2026-04-26 01:44 | 37.60882 | -122.38274 | 22 ft | 18 kts | 108° |
| 2026-04-26 01:44 | 37.60843 | -122.38118 | 21 ft | 19 kts | 116° |
| 2026-04-26 01:44 | 37.60784 | -122.37974 | 23 ft | 18 kts | 119° |
| 2026-04-26 01:44 | 37.60750 | -122.37843 | 21 ft | 15 kts | 65° |
| 2026-04-26 01:45 | 37.60836 | -122.37777 | 21 ft | 14 kts | 28° |
| 2026-04-26 01:45 | 37.60936 | -122.37709 | 21 ft | 21 kts | 28° |
| 2026-04-26 01:45 | 37.61071 | -122.37620 | 22 ft | 22 kts | 27° |
| 2026-04-26 01:45 | 37.61204 | -122.37533 | 22 ft | 21 kts | 27° |
| 2026-04-26 01:46 | 37.61333 | -122.37448 | 21 ft | 21 kts | 28° |
| 2026-04-26 01:46 | 37.61458 | -122.37366 | 21 ft | 20 kts | 27° |
| 2026-04-26 01:46 | 37.61552 | -122.37246 | 21 ft | 19 kts | 69° |
| 2026-04-26 01:46 | 37.61541 | -122.37086 | 22 ft | 19 kts | 118° |
| 2026-04-26 01:47 | 37.61479 | -122.36945 | 21 ft | 18 kts | 124° |
| 2026-04-26 01:47 | 37.61398 | -122.36827 | 21 ft | 17 kts | 133° |
| 2026-04-26 01:47 | 37.61332 | -122.36703 | 21 ft | 17 kts | 117° |
| 2026-04-26 01:47 | 37.61280 | -122.36575 | 21 ft | 16 kts | 117° |
| 2026-04-26 01:48 | 37.61228 | -122.36453 | 22 ft | 16 kts | 118° |
| 2026-04-26 01:48 | 37.61178 | -122.36334 | 21 ft | 15 kts | 117° |
| 2026-04-26 01:48 | 37.61131 | -122.36221 | 23 ft | 14 kts | 118° |
| 2026-04-26 01:48 | 37.61085 | -122.36112 | 21 ft | 14 kts | 118° |
| 2026-04-26 01:49 | 37.61050 | -122.36004 | 21 ft | 13 kts | 94° |
| 2026-04-26 01:49 | 37.61091 | -122.35911 | 21 ft | 11 kts | 33° |
| 2026-04-26 01:49 | 37.61151 | -122.35878 | 21 ft | 9 kts | 10° |
| 2026-04-26 01:49 | 37.61203 | -122.35914 | 21 ft | 9 kts | 302° |
| 2026-04-26 01:50 | 37.61264 | -122.36061 | 23 ft | 43 kts | 297° |
| 2026-04-26 01:50 | 37.61513 | -122.36653 | 22 ft | 108 kts | 298° |
| 2026-04-26 01:50 | 37.61941 | -122.37702 | 42 ft | 156 kts | 298° |
| 2026-04-26 01:50 | 37.62491 | -122.38915 | 636 ft | 162 kts | 298° |
| 2026-04-26 01:51 | 37.63036 | -122.40141 | 1454 ft | 155 kts | 296° |
| 2026-04-26 01:51 | 37.63542 | -122.41347 | 2166 ft | 164 kts | 295° |
| 2026-04-26 01:51 | 37.64131 | -122.42740 | 2454 ft | 193 kts | 296° |
| 2026-04-26 01:51 | 37.64804 | -122.44302 | 2648 ft | 216 kts | 296° |
| 2026-04-26 01:52 | 37.65562 | -122.46043 | 3031 ft | 230 kts | 296° |
| 2026-04-26 01:52 | 37.66338 | -122.47803 | 3730 ft | 233 kts | 296° |
| 2026-04-26 01:52 | 37.66880 | -122.49714 | 4217 ft | 246 kts | 269° |
| 2026-04-26 01:52 | 37.66490 | -122.51804 | 4889 ft | 250 kts | 239° |
| 2026-04-26 01:53 | 37.65285 | -122.53388 | 5644 ft | 257 kts | 213° |
| 2026-04-26 01:53 | 37.63554 | -122.54079 | 6321 ft | 271 kts | 184° |
| 2026-04-26 01:53 | 37.61652 | -122.53691 | 6947 ft | 282 kts | 162° |
| 2026-04-26 01:53 | 37.59794 | -122.52776 | 7624 ft | 290 kts | 158° |
| 2026-04-26 01:54 | 37.57941 | -122.51814 | 8447 ft | 291 kts | 159° |
| 2026-04-26 01:54 | 37.56058 | -122.50862 | 9252 ft | 294 kts | 159° |
| 2026-04-26 01:54 | 37.54144 | -122.49926 | 9866 ft | 304 kts | 159° |
| 2026-04-26 01:54 | 37.52152 | -122.48970 | 10394 ft | 315 kts | 159° |
| 2026-04-26 01:55 | 37.50029 | -122.47973 | 10588 ft | 337 kts | 162° |
| 2026-04-26 01:55 | 37.47650 | -122.47618 | 10842 ft | 353 kts | 186° |
| 2026-04-26 01:55 | 37.45191 | -122.48038 | 11502 ft | 357 kts | 189° |
| 2026-04-26 01:55 | 37.42711 | -122.48527 | 12095 ft | 365 kts | 189° |
| 2026-04-26 01:56 | 37.40189 | -122.49031 | 12874 ft | 367 kts | 189° |
| 2026-04-26 01:56 | 37.37645 | -122.49532 | 13560 ft | 373 kts | 189° |
| 2026-04-26 01:56 | 37.35069 | -122.50029 | 14292 ft | 375 kts | 188° |
| 2026-04-26 01:56 | 37.32472 | -122.50522 | 14988 ft | 379 kts | 188° |
| 2026-04-26 01:57 | 37.29851 | -122.51013 | 15672 ft | 383 kts | 188° |
| 2026-04-26 01:57 | 37.27195 | -122.51508 | 16360 ft | 388 kts | 187° |
| 2026-04-26 01:57 | 37.24507 | -122.52006 | 17025 ft | 392 kts | 187° |
| 2026-04-26 01:57 | 37.21794 | -122.52508 | 17699 ft | 396 kts | 187° |
| 2026-04-26 01:58 | 37.19057 | -122.53014 | 18353 ft | 400 kts | 187° |
| 2026-04-26 01:58 | 37.16306 | -122.53521 | 19078 ft | 399 kts | 186° |
| 2026-04-26 01:58 | 37.13545 | -122.54033 | 19695 ft | 402 kts | 187° |
| 2026-04-26 01:58 | 37.10758 | -122.54548 | 20211 ft | 408 kts | 187° |
| 2026-04-26 01:59 | 37.07933 | -122.55069 | 20748 ft | 412 kts | 187° |
| 2026-04-26 01:59 | 37.05088 | -122.55594 | 21317 ft | 415 kts | 188° |
| 2026-04-26 01:59 | 37.02206 | -122.56005 | 21852 ft | 419 kts | 179° |
| 2026-04-26 01:59 | 36.99333 | -122.55383 | 22360 ft | 421 kts | 159° |
| 2026-04-26 02:00 | 36.96714 | -122.53733 | 22929 ft | 422 kts | 149° |
| 2026-04-26 02:00 | 36.94174 | -122.51852 | 23438 ft | 426 kts | 148° |
| 2026-04-26 02:00 | 36.91619 | -122.49924 | 23861 ft | 430 kts | 148° |
| 2026-04-26 02:00 | 36.89050 | -122.47985 | 24301 ft | 433 kts | 148° |
| 2026-04-26 02:01 | 36.86464 | -122.46046 | 24769 ft | 435 kts | 148° |
| 2026-04-26 02:01 | 36.83854 | -122.44107 | 25232 ft | 436 kts | 148° |
| 2026-04-26 02:01 | 36.81236 | -122.42173 | 25658 ft | 439 kts | 148° |
| 2026-04-26 02:01 | 36.78629 | -122.40256 | 26045 ft | 442 kts | 149° |
| 2026-04-26 02:02 | 36.75976 | -122.38313 | 26509 ft | 443 kts | 148° |
| 2026-04-26 02:02 | 36.73309 | -122.36362 | 26935 ft | 445 kts | 148° |
| 2026-04-26 02:02 | 36.70630 | -122.34406 | 27321 ft | 447 kts | 149° |
| 2026-04-26 02:02 | 36.67934 | -122.32437 | 27650 ft | 451 kts | 148° |
| 2026-04-26 02:03 | 36.65212 | -122.30450 | 28022 ft | 454 kts | 148° |
| 2026-04-26 02:03 | 36.62487 | -122.28464 | 28420 ft | 456 kts | 148° |
| 2026-04-26 02:03 | 36.59742 | -122.26464 | 28786 ft | 458 kts | 148° |
| 2026-04-26 02:03 | 36.56985 | -122.24457 | 29125 ft | 460 kts | 148° |
| 2026-04-26 02:04 | 36.54212 | -122.22440 | 29461 ft | 463 kts | 148° |
| 2026-04-26 02:04 | 36.51419 | -122.20409 | 29783 ft | 465 kts | 148° |
| 2026-04-26 02:04 | 36.48616 | -122.18374 | 30089 ft | 468 kts | 148° |
| 2026-04-26 02:04 | 36.45801 | -122.16331 | 30366 ft | 470 kts | 148° |
| 2026-04-26 02:05 | 36.42979 | -122.14286 | 30669 ft | 470 kts | 148° |
| 2026-04-26 02:05 | 36.40157 | -122.12243 | 31051 ft | 469 kts | 149° |
| 2026-04-26 02:05 | 36.37338 | -122.10202 | 31397 ft | 469 kts | 149° |
| 2026-04-26 02:05 | 36.34557 | -122.08191 | 31715 ft | 469 kts | 149° |
| 2026-04-26 02:06 | 36.31745 | -122.06158 | 32249 ft | 463 kts | 150° |
| 2026-04-26 02:06 | 36.28980 | -122.04161 | 32880 ft | 457 kts | 151° |
| 2026-04-26 02:06 | 36.26239 | -122.02184 | 33178 ft | 458 kts | 151° |
| 2026-04-26 02:06 | 36.23472 | -122.00191 | 33340 ft | 462 kts | 151° |
| 2026-04-26 02:07 | 36.20692 | -121.98190 | 33588 ft | 463 kts | 152° |
| 2026-04-26 02:07 | 36.17910 | -121.96188 | 33972 ft | 461 kts | 152° |
| 2026-04-26 02:07 | 36.15147 | -121.94200 | 34296 ft | 459 kts | 152° |
| 2026-04-26 02:07 | 36.12381 | -121.92212 | 34538 ft | 460 kts | 152° |
| 2026-04-26 02:08 | 36.09609 | -121.90222 | 34744 ft | 461 kts | 152° |
| 2026-04-26 02:08 | 36.06837 | -121.88232 | 34981 ft | 461 kts | 152° |
| 2026-04-26 02:08 | 36.04061 | -121.86243 | 35245 ft | 461 kts | 153° |
| 2026-04-26 02:08 | 36.01294 | -121.84249 | 35500 ft | 461 kts | 150° |
| 2026-04-26 02:09 | 35.98805 | -121.81729 | 35651 ft | 469 kts | 132° |
| 2026-04-26 02:09 | 35.96819 | -121.78514 | 35914 ft | 469 kts | 129° |
| 2026-04-26 02:09 | 35.94866 | -121.75292 | 36137 ft | 469 kts | 130° |
| 2026-04-26 02:09 | 35.92891 | -121.72069 | 36244 ft | 472 kts | 130° |
| 2026-04-26 02:10 | 35.90891 | -121.68843 | 36418 ft | 473 kts | 131° |
| 2026-04-26 02:10 | 35.88908 | -121.65672 | 36673 ft | 472 kts | 131° |
| 2026-04-26 02:10 | 35.86895 | -121.62469 | 36940 ft | 472 kts | 131° |
| 2026-04-26 02:11 | 35.82839 | -121.56045 | 36956 ft | 476 kts | 131° |
| 2026-04-26 02:11 | 35.78786 | -121.49633 | 36948 ft | 472 kts | 131° |
| 2026-04-26 02:12 | 35.74766 | -121.43282 | 36951 ft | 469 kts | 131° |
| 2026-04-26 02:12 | 35.70762 | -121.36967 | 36954 ft | 467 kts | 131° |
| 2026-04-26 02:13 | 35.66767 | -121.30680 | 36952 ft | 466 kts | 131° |
| 2026-04-26 02:13 | 35.62741 | -121.24356 | 36965 ft | 473 kts | 132° |
| 2026-04-26 02:14 | 35.58691 | -121.18004 | 36961 ft | 476 kts | 132° |
| 2026-04-26 02:14 | 35.54613 | -121.11613 | 36956 ft | 475 kts | 132° |
| 2026-04-26 02:15 | 35.51216 | -121.06300 | 36943 ft | 475 kts | 132° |
| 2026-04-26 02:15 | 35.47314 | -120.99745 | 36959 ft | 476 kts | 129° |
| 2026-04-26 02:16 | 35.43524 | -120.93083 | 36962 ft | 476 kts | 129° |
| 2026-04-26 02:16 | 35.39726 | -120.86454 | 36957 ft | 475 kts | 130° |
| 2026-04-26 02:17 | 35.35901 | -120.79856 | 36943 ft | 475 kts | 130° |
| 2026-04-26 02:17 | 35.32061 | -120.73271 | 36960 ft | 474 kts | 130° |
| 2026-04-26 02:18 | 35.28222 | -120.66706 | 36953 ft | 475 kts | 130° |
| 2026-04-26 02:18 | 35.24371 | -120.60130 | 36963 ft | 475 kts | 130° |
| 2026-04-26 02:19 | 35.20535 | -120.53589 | 36951 ft | 476 kts | 130° |
| 2026-04-26 02:19 | 35.16667 | -120.47006 | 36953 ft | 478 kts | 130° |
| 2026-04-26 02:20 | 35.12774 | -120.40393 | 36968 ft | 479 kts | 130° |
| 2026-04-26 02:20 | 35.08874 | -120.33779 | 36963 ft | 479 kts | 130° |
| 2026-04-26 02:21 | 35.04993 | -120.27211 | 36950 ft | 480 kts | 131° |
| 2026-04-26 02:21 | 35.01082 | -120.20603 | 36967 ft | 480 kts | 131° |
| 2026-04-26 02:22 | 34.97160 | -120.13991 | 36958 ft | 481 kts | 131° |
| 2026-04-26 02:22 | 34.93225 | -120.07383 | 36954 ft | 480 kts | 133° |
| 2026-04-26 02:23 | 34.89231 | -120.00847 | 36954 ft | 481 kts | 131° |
| 2026-04-26 02:23 | 34.85338 | -119.94222 | 36945 ft | 480 kts | 131° |
| 2026-04-26 02:24 | 34.81460 | -119.87661 | 36934 ft | 479 kts | 131° |
| 2026-04-26 02:24 | 34.77538 | -119.81097 | 36931 ft | 478 kts | 132° |
| 2026-04-26 02:25 | 34.73629 | -119.74574 | 36938 ft | 477 kts | 132° |
| 2026-04-26 02:25 | 34.69714 | -119.68053 | 36930 ft | 478 kts | 132° |
| 2026-04-26 02:26 | 34.65778 | -119.61518 | 36918 ft | 479 kts | 132° |
| 2026-04-26 02:26 | 34.61836 | -119.54979 | 36931 ft | 480 kts | 132° |
| 2026-04-26 02:27 | 34.57902 | -119.48461 | 36700 ft | 483 kts | 131° |
| 2026-04-26 02:27 | 34.55972 | -119.45131 | 36446 ft | 481 kts | 132° |
| 2026-04-26 02:27 | 34.54006 | -119.41873 | 36179 ft | 476 kts | 133° |
| 2026-04-26 02:27 | 34.52030 | -119.38654 | 35956 ft | 475 kts | 133° |
| 2026-04-26 02:28 | 34.50055 | -119.35444 | 35722 ft | 475 kts | 133° |
| 2026-04-26 02:28 | 34.48080 | -119.32225 | 35476 ft | 475 kts | 133° |
| 2026-04-26 02:28 | 34.46111 | -119.29000 | 35245 ft | 475 kts | 133° |
| 2026-04-26 02:28 | 34.44147 | -119.25782 | 35012 ft | 475 kts | 133° |
| 2026-04-26 02:29 | 34.42187 | -119.22570 | 34776 ft | 475 kts | 133° |
| 2026-04-26 02:29 | 34.40230 | -119.19362 | 34547 ft | 475 kts | 133° |
| 2026-04-26 02:29 | 34.38266 | -119.16140 | 34323 ft | 475 kts | 133° |
| 2026-04-26 02:29 | 34.36307 | -119.12917 | 34105 ft | 474 kts | 133° |
| 2026-04-26 02:30 | 34.34348 | -119.09709 | 33858 ft | 474 kts | 133° |
| 2026-04-26 02:30 | 34.32409 | -119.06543 | 33596 ft | 474 kts | 133° |
| 2026-04-26 02:30 | 34.30448 | -119.03343 | 33341 ft | 473 kts | 133° |
| 2026-04-26 02:30 | 34.28487 | -119.00144 | 33070 ft | 473 kts | 134° |
| 2026-04-26 02:31 | 34.26537 | -118.96963 | 32970 ft | 470 kts | 134° |
| 2026-04-26 02:31 | 34.22646 | -118.90627 | 32952 ft | 469 kts | 134° |
| 2026-04-26 02:32 | 34.18789 | -118.84257 | 32934 ft | 469 kts | 134° |
| 2026-04-26 02:32 | 34.14866 | -118.77967 | 32927 ft | 469 kts | 135° |
| 2026-04-26 02:33 | 34.10958 | -118.71663 | 32924 ft | 469 kts | 135° |
| 2026-04-26 02:33 | 34.07057 | -118.65350 | 32948 ft | 470 kts | 135° |
| 2026-04-26 02:34 | 34.03146 | -118.59040 | 32962 ft | 471 kts | 134° |
| 2026-04-26 02:34 | 34.01221 | -118.55870 | 32372 ft | 468 kts | 135° |
| 2026-04-26 02:34 | 33.99281 | -118.52755 | 31957 ft | 462 kts | 135° |
| 2026-04-26 02:34 | 33.97380 | -118.49720 | 31531 ft | 457 kts | 135° |
| 2026-04-26 02:35 | 33.95472 | -118.46666 | 31004 ft | 455 kts | 136° |
| 2026-04-26 02:35 | 33.93571 | -118.43621 | 30503 ft | 453 kts | 137° |
| 2026-04-26 02:35 | 33.91580 | -118.40738 | 30086 ft | 444 kts | 141° |
| 2026-04-26 02:35 | 33.89496 | -118.38034 | 29638 ft | 437 kts | 143° |
| 2026-04-26 02:36 | 33.87403 | -118.35408 | 29163 ft | 432 kts | 143° |
| 2026-04-26 02:36 | 33.85339 | -118.32813 | 28700 ft | 427 kts | 143° |
| 2026-04-26 02:36 | 33.83302 | -118.30224 | 28212 ft | 425 kts | 143° |
| 2026-04-26 02:36 | 33.81290 | -118.27637 | 27721 ft | 422 kts | 142° |
| 2026-04-26 02:37 | 33.79293 | -118.25056 | 27221 ft | 419 kts | 143° |
| 2026-04-26 02:37 | 33.77313 | -118.22497 | 26674 ft | 418 kts | 143° |
| 2026-04-26 02:37 | 33.75338 | -118.19920 | 26137 ft | 418 kts | 142° |
| 2026-04-26 02:37 | 33.73386 | -118.17349 | 25681 ft | 415 kts | 142° |
| 2026-04-26 02:38 | 33.71450 | -118.14795 | 25240 ft | 412 kts | 142° |
| 2026-04-26 02:38 | 33.69529 | -118.12265 | 24819 ft | 409 kts | 142° |
| 2026-04-26 02:38 | 33.67619 | -118.09754 | 24394 ft | 406 kts | 142° |
| 2026-04-26 02:38 | 33.65719 | -118.07262 | 23956 ft | 403 kts | 142° |
| 2026-04-26 02:39 | 33.63831 | -118.04788 | 23505 ft | 401 kts | 142° |
| 2026-04-26 02:39 | 33.61953 | -118.02330 | 23015 ft | 398 kts | 143° |
| 2026-04-26 02:39 | 33.60116 | -117.99927 | 22573 ft | 394 kts | 142° |
| 2026-04-26 02:39 | 33.58248 | -117.97483 | 22149 ft | 390 kts | 142° |
| 2026-04-26 02:40 | 33.56447 | -117.95130 | 21730 ft | 386 kts | 142° |
| 2026-04-26 02:40 | 33.54628 | -117.92782 | 21309 ft | 381 kts | 143° |
| 2026-04-26 02:40 | 33.52766 | -117.90566 | 20953 ft | 374 kts | 145° |
| 2026-04-26 02:40 | 33.50898 | -117.88432 | 20558 ft | 370 kts | 146° |
| 2026-04-26 02:41 | 33.49032 | -117.86308 | 20158 ft | 367 kts | 145° |
| 2026-04-26 02:41 | 33.47196 | -117.84199 | 19761 ft | 364 kts | 144° |
| 2026-04-26 02:41 | 33.45379 | -117.82098 | 19375 ft | 362 kts | 144° |
| 2026-04-26 02:41 | 33.43573 | -117.80017 | 18958 ft | 359 kts | 144° |
| 2026-04-26 02:42 | 33.41741 | -117.78018 | 18587 ft | 355 kts | 145° |
| 2026-04-26 02:42 | 33.39897 | -117.76062 | 18198 ft | 353 kts | 145° |
| 2026-04-26 02:42 | 33.38059 | -117.74121 | 17760 ft | 351 kts | 145° |
| 2026-04-26 02:42 | 33.36241 | -117.72197 | 17348 ft | 348 kts | 144° |
| 2026-04-26 02:43 | 33.32643 | -117.68369 | 16559 ft | 344 kts | 144° |
| 2026-04-26 02:43 | 33.30862 | -117.66472 | 16175 ft | 342 kts | 144° |
| 2026-04-26 02:43 | 33.29084 | -117.64577 | 15795 ft | 343 kts | 144° |
| 2026-04-26 02:44 | 33.27292 | -117.62669 | 15421 ft | 346 kts | 144° |
| 2026-04-26 02:44 | 33.25495 | -117.60756 | 15035 ft | 345 kts | 144° |
| 2026-04-26 02:44 | 33.23700 | -117.58853 | 14704 ft | 343 kts | 144° |
| 2026-04-26 02:44 | 33.21910 | -117.56968 | 14398 ft | 343 kts | 144° |
| 2026-04-26 02:45 | 33.20115 | -117.55081 | 14095 ft | 344 kts | 144° |
| 2026-04-26 02:45 | 33.18320 | -117.53193 | 13787 ft | 344 kts | 144° |
| 2026-04-26 02:45 | 33.16518 | -117.51299 | 13430 ft | 344 kts | 144° |
| 2026-04-26 02:45 | 33.14748 | -117.49439 | 13088 ft | 344 kts | 144° |
| 2026-04-26 02:46 | 33.12930 | -117.47613 | 12771 ft | 340 kts | 148° |
| 2026-04-26 02:46 | 33.11002 | -117.45994 | 12461 ft | 336 kts | 151° |
| 2026-04-26 02:46 | 33.09068 | -117.44435 | 12151 ft | 335 kts | 151° |
| 2026-04-26 02:46 | 33.07152 | -117.42872 | 11844 ft | 333 kts | 150° |
| 2026-04-26 02:47 | 33.05248 | -117.41300 | 11542 ft | 332 kts | 150° |
| 2026-04-26 02:47 | 33.03361 | -117.39725 | 11248 ft | 330 kts | 150° |
| 2026-04-26 02:47 | 33.01493 | -117.38157 | 10947 ft | 328 kts | 150° |
| 2026-04-26 02:47 | 32.99637 | -117.36597 | 10656 ft | 325 kts | 149° |
| 2026-04-26 02:48 | 32.97801 | -117.35055 | 10375 ft | 321 kts | 149° |
| 2026-04-26 02:48 | 32.95984 | -117.33532 | 10079 ft | 319 kts | 149° |
| 2026-04-26 02:48 | 32.94190 | -117.32028 | 9931 ft | 308 kts | 149° |
| 2026-04-26 02:48 | 32.92489 | -117.30599 | 9913 ft | 292 kts | 150° |
| 2026-04-26 02:49 | 32.90842 | -117.29225 | 9494 ft | 295 kts | 149° |
| 2026-04-26 02:49 | 32.89168 | -117.27835 | 9394 ft | 287 kts | 149° |
| 2026-04-26 02:49 | 32.87570 | -117.26506 | 9303 ft | 274 kts | 150° |
| 2026-04-26 02:49 | 32.86026 | -117.25223 | 9058 ft | 268 kts | 150° |
| 2026-04-26 02:50 | 32.84499 | -117.23957 | 8737 ft | 266 kts | 149° |
| 2026-04-26 02:50 | 32.82981 | -117.22701 | 8369 ft | 265 kts | 149° |
| 2026-04-26 02:50 | 32.81529 | -117.21336 | 7989 ft | 270 kts | 133° |
| 2026-04-26 02:50 | 32.80710 | -117.19332 | 7675 ft | 273 kts | 107° |
| 2026-04-26 02:51 | 32.80240 | -117.17158 | 7364 ft | 270 kts | 106° |
| 2026-04-26 02:51 | 32.79781 | -117.15019 | 6997 ft | 271 kts | 106° |
| 2026-04-26 02:51 | 32.79313 | -117.12868 | 6752 ft | 267 kts | 106° |
| 2026-04-26 02:51 | 32.78840 | -117.10727 | 6489 ft | 268 kts | 107° |
| 2026-04-26 02:52 | 32.78362 | -117.08593 | 6250 ft | 268 kts | 106° |
| 2026-04-26 02:52 | 32.77883 | -117.06448 | 5990 ft | 268 kts | 106° |
| 2026-04-26 02:52 | 32.77384 | -117.04334 | 5743 ft | 263 kts | 107° |
| 2026-04-26 02:52 | 32.76889 | -117.02288 | 5625 ft | 249 kts | 108° |
| 2026-04-26 02:53 | 32.76417 | -117.00366 | 5495 ft | 235 kts | 108° |
| 2026-04-26 02:53 | 32.75974 | -116.98563 | 5387 ft | 220 kts | 109° |
| 2026-04-26 02:53 | 32.75303 | -116.96951 | 4971 ft | 218 kts | 134° |
| 2026-04-26 02:53 | 32.74155 | -116.95878 | 4670 ft | 207 kts | 159° |
| 2026-04-26 02:54 | 32.72825 | -116.95432 | 4440 ft | 193 kts | 179° |
| 2026-04-26 02:54 | 32.71531 | -116.95567 | 4186 ft | 182 kts | 200° |
| 2026-04-26 02:54 | 32.70421 | -116.96168 | 3974 ft | 172 kts | 218° |
| 2026-04-26 02:54 | 32.69573 | -116.97135 | 3763 ft | 168 kts | 236° |
| 2026-04-26 02:55 | 32.69002 | -116.98332 | 3540 ft | 167 kts | 251° |
| 2026-04-26 02:55 | 32.68829 | -116.99676 | 3359 ft | 164 kts | 271° |
| 2026-04-26 02:55 | 32.69064 | -117.01013 | 3132 ft | 167 kts | 283° |
| 2026-04-26 02:55 | 32.69368 | -117.02350 | 2941 ft | 169 kts | 283° |
| 2026-04-26 02:56 | 32.69684 | -117.03691 | 2723 ft | 168 kts | 283° |
| 2026-04-26 02:56 | 32.69995 | -117.04994 | 2512 ft | 160 kts | 284° |
| 2026-04-26 02:56 | 32.70299 | -117.06260 | 2363 ft | 160 kts | 282° |
| 2026-04-26 02:56 | 32.70602 | -117.07519 | 2098 ft | 158 kts | 283° |
| 2026-04-26 02:57 | 32.70892 | -117.08729 | 1855 ft | 149 kts | 284° |
| 2026-04-26 02:57 | 32.71169 | -117.09881 | 1632 ft | 142 kts | 284° |
| 2026-04-26 02:57 | 32.71437 | -117.11000 | 1416 ft | 142 kts | 283° |
| 2026-04-26 02:57 | 32.71717 | -117.12132 | 1211 ft | 143 kts | 283° |
| 2026-04-26 02:58 | 32.71978 | -117.13249 | 965 ft | 138 kts | 284° |
| 2026-04-26 02:58 | 32.72237 | -117.14314 | 796 ft | 136 kts | 286° |
| 2026-04-26 02:58 | 32.72500 | -117.15427 | 566 ft | 140 kts | 286° |
| 2026-04-26 02:58 | 32.72764 | -117.16510 | 335 ft | 137 kts | 287° |
| 2026-04-26 02:59 | 32.73032 | -117.17624 | 123 ft | 137 kts | 285° |
| 2026-04-26 02:59 | 32.73288 | -117.18685 | 27 ft | 126 kts | 285° |
| 2026-04-26 02:59 | 32.73455 | -117.19374 | 23 ft | 62 kts | 286° |
| 2026-04-26 02:59 | 32.73534 | -117.19716 | 26 ft | 16 kts | 275° |
| 2026-04-26 03:00 | 32.73514 | -117.19820 | 25 ft | 11 kts | 250° |
| 2026-04-26 03:00 | 32.73490 | -117.19911 | 22 ft | 11 kts | 262° |
| 2026-04-26 03:00 | 32.73504 | -117.20003 | 22 ft | 11 kts | 286° |
| 2026-04-26 03:00 | 32.73524 | -117.20089 | 24 ft | 11 kts | 285° |
| 2026-04-26 03:01 | 32.73542 | -117.20170 | 22 ft | 10 kts | 284° |
| 2026-04-26 03:01 | 32.73520 | -117.20235 | 22 ft | 9 kts | 206° |
| 2026-04-26 03:01 | 32.73479 | -117.20250 | 22 ft | 9 kts | 195° |
| 2026-04-26 03:01 | 32.73398 | -117.20277 | 22 ft | 9 kts | 193° |
| 2026-04-26 03:02 | 32.73357 | -117.20275 | 24 ft | 9 kts | 166° |
| 2026-04-26 03:02 | 32.73308 | -117.20277 | 22 ft | 7 kts | 212° |
| 2026-04-26 03:02 | 32.73263 | -117.20320 | 22 ft | 4 kts | 220° |
| 2026-04-26 03:02 | 32.73252 | -117.20331 | 23 ft | 2 kts | 220° |
| 2026-04-26 03:03 | 32.73250 | -117.20333 | 23 ft | 0 kts | 220° |